sensor_id;sensor_type;location;lat;lon;timestamp;temperature;humidity
23100;DHT22;53791;50.696;4.396;2023-01-05T00:01:04;11.00;99.90
23100;DHT22;53791;50.696;4.396;2023-01-05T00:03:32;11.00;99.90
23100;DHT22;53791;50.696;4.396;2023-01-05T00:06:04;11.00;99.90
23100;DHT22;53791;50.696;4.396;2023-01-05T00:08:32;11.00;99.90
23100;DHT22;53791;50.696;4.396;2023-01-05T00:11:05;11.00;99.90
23100;DHT22;53791;50.696;4.396;2023-01-05T00:13:51;11.00;99.90
23100;DHT22;53791;50.696;4.396;2023-01-05T00:16:36;11.00;99.90
23100;DHT22;53791;50.696;4.396;2023-01-05T00:19:22;11.00;99.90
23100;DHT22;53791;50.696;4.396;2023-01-05T00:22:18;11.00;99.90
23100;DHT22;53791;50.696;4.396;2023-01-05T00:25:04;10.90;99.90
23100;DHT22;53791;50.696;4.396;2023-01-05T00:27:31;10.90;99.90
23100;DHT22;53791;50.696;4.396;2023-01-05T00:29:59;10.90;99.90
23100;DHT22;53791;50.696;4.396;2023-01-05T00:32:28;10.90;99.90
23100;DHT22;53791;50.696;4.396;2023-01-05T00:34:57;10.90;99.90
23100;DHT22;53791;50.696;4.396;2023-01-05T00:37:26;10.90;99.90
23100;DHT22;53791;50.696;4.396;2023-01-05T00:39:54;10.90;99.90
23100;DHT22;53791;50.696;4.396;2023-01-05T00:42:22;10.90;99.90
23100;DHT22;53791;50.696;4.396;2023-01-05T00:44:49;10.90;99.90
23100;DHT22;53791;50.696;4.396;2023-01-05T00:47:17;10.90;99.90
23100;DHT22;53791;50.696;4.396;2023-01-05T00:49:44;10.80;99.90
23100;DHT22;53791;50.696;4.396;2023-01-05T00:52:12;10.90;99.90
23100;DHT22;53791;50.696;4.396;2023-01-05T00:54:39;10.90;99.90
23100;DHT22;53791;50.696;4.396;2023-01-05T00:57:09;10.80;99.90
23100;DHT22;53791;50.696;4.396;2023-01-05T00:59:36;10.90;99.90
23100;DHT22;53791;50.696;4.396;2023-01-05T01:02:03;10.80;99.90
23100;DHT22;53791;50.696;4.396;2023-01-05T01:04:32;10.80;99.90
23100;DHT22;53791;50.696;4.396;2023-01-05T01:07:00;10.80;99.90
23100;DHT22;53791;50.696;4.396;2023-01-05T01:09:28;10.70;99.90
23100;DHT22;53791;50.696;4.396;2023-01-05T01:11:56;10.70;99.90
23100;DHT22;53791;50.696;4.396;2023-01-05T01:14:23;10.70;99.90
23100;DHT22;53791;50.696;4.396;2023-01-05T01:16:51;10.70;99.90
23100;DHT22;53791;50.696;4.396;2023-01-05T01:19:23;10.70;99.90
23100;DHT22;53791;50.696;4.396;2023-01-05T01:21:50;10.70;99.90
23100;DHT22;53791;50.696;4.396;2023-01-05T01:24:23;10.60;99.90
23100;DHT22;53791;50.696;4.396;2023-01-05T01:26:52;10.60;99.90
23100;DHT22;53791;50.696;4.396;2023-01-05T01:29:20;10.60;99.90
23100;DHT22;53791;50.696;4.396;2023-01-05T01:31:50;10.50;99.90
23100;DHT22;53791;50.696;4.396;2023-01-05T01:34:17;10.50;99.90
23100;DHT22;53791;50.696;4.396;2023-01-05T01:36:45;10.50;99.90
23100;DHT22;53791;50.696;4.396;2023-01-05T01:39:13;10.50;99.90
23100;DHT22;53791;50.696;4.396;2023-01-05T01:41:41;10.50;99.90
23100;DHT22;53791;50.696;4.396;2023-01-05T01:47:30;10.50;99.90
23100;DHT22;53791;50.696;4.396;2023-01-05T01:50:00;10.50;99.90
23100;DHT22;53791;50.696;4.396;2023-01-05T01:52:30;10.50;99.90
23100;DHT22;53791;50.696;4.396;2023-01-05T01:55:00;10.50;99.90
23100;DHT22;53791;50.696;4.396;2023-01-05T01:57:28;10.60;99.90
23100;DHT22;53791;50.696;4.396;2023-01-05T01:59:58;10.60;99.90
23100;DHT22;53791;50.696;4.396;2023-01-05T02:02:29;10.60;99.90
23100;DHT22;53791;50.696;4.396;2023-01-05T02:05:01;10.60;99.90
23100;DHT22;53791;50.696;4.396;2023-01-05T02:07:31;10.60;99.90
23100;DHT22;53791;50.696;4.396;2023-01-05T02:10:02;10.60;99.90
23100;DHT22;53791;50.696;4.396;2023-01-05T02:18:19;10.60;99.90
23100;DHT22;53791;50.696;4.396;2023-01-05T02:20:57;10.60;99.90
23100;DHT22;53791;50.696;4.396;2023-01-05T02:28:51;10.70;99.90
23100;DHT22;53791;50.696;4.396;2023-01-05T02:31:14;10.80;99.90
23100;DHT22;53791;50.696;4.396;2023-01-05T02:36:52;10.80;99.90
23100;DHT22;53791;50.696;4.396;2023-01-05T02:39:40;10.80;99.90
23100;DHT22;53791;50.696;4.396;2023-01-05T02:42:12;10.80;99.90
23100;DHT22;53791;50.696;4.396;2023-01-05T02:44:40;10.80;99.90
23100;DHT22;53791;50.696;4.396;2023-01-05T02:47:34;10.70;99.90
23100;DHT22;53791;50.696;4.396;2023-01-05T02:50:18;10.80;99.90
23100;DHT22;53791;50.696;4.396;2023-01-05T02:52:53;10.80;99.90
23100;DHT22;53791;50.696;4.396;2023-01-05T02:55:23;10.80;99.90
23100;DHT22;53791;50.696;4.396;2023-01-05T02:57:59;10.80;99.90
23100;DHT22;53791;50.696;4.396;2023-01-05T03:00:37;10.90;99.90
23100;DHT22;53791;50.696;4.396;2023-01-05T03:03:07;10.90;99.90
23100;DHT22;53791;50.696;4.396;2023-01-05T03:05:38;10.90;99.90
23100;DHT22;53791;50.696;4.396;2023-01-05T03:08:06;10.90;99.90
23100;DHT22;53791;50.696;4.396;2023-01-05T03:10:41;10.90;99.90
23100;DHT22;53791;50.696;4.396;2023-01-05T03:13:26;10.90;99.90
23100;DHT22;53791;50.696;4.396;2023-01-05T03:16:13;10.90;99.90
23100;DHT22;53791;50.696;4.396;2023-01-05T03:18:40;10.90;99.90
23100;DHT22;53791;50.696;4.396;2023-01-05T03:21:26;10.90;99.90
23100;DHT22;53791;50.696;4.396;2023-01-05T03:23:56;10.90;99.90
23100;DHT22;53791;50.696;4.396;2023-01-05T03:26:42;10.90;99.90
23100;DHT22;53791;50.696;4.396;2023-01-05T03:29:28;10.90;99.90
23100;DHT22;53791;50.696;4.396;2023-01-05T03:32:21;10.90;99.90
23100;DHT22;53791;50.696;4.396;2023-01-05T03:35:11;10.90;99.90
23100;DHT22;53791;50.696;4.396;2023-01-05T03:40:58;10.90;99.90
23100;DHT22;53791;50.696;4.396;2023-01-05T03:43:28;10.90;99.90
23100;DHT22;53791;50.696;4.396;2023-01-05T03:45:57;10.90;99.90
23100;DHT22;53791;50.696;4.396;2023-01-05T03:48:26;10.90;99.90
23100;DHT22;53791;50.696;4.396;2023-01-05T03:50:55;10.90;99.90
23100;DHT22;53791;50.696;4.396;2023-01-05T03:53:23;10.90;99.90
23100;DHT22;53791;50.696;4.396;2023-01-05T03:55:52;10.90;99.90
23100;DHT22;53791;50.696;4.396;2023-01-05T03:58:20;10.90;99.90
23100;DHT22;53791;50.696;4.396;2023-01-05T04:00:47;11.00;99.90
23100;DHT22;53791;50.696;4.396;2023-01-05T04:03:15;11.00;99.90
23100;DHT22;53791;50.696;4.396;2023-01-05T04:05:45;11.00;99.90
23100;DHT22;53791;50.696;4.396;2023-01-05T04:08:12;11.00;99.90
23100;DHT22;53791;50.696;4.396;2023-01-05T04:10:45;10.90;99.90
23100;DHT22;53791;50.696;4.396;2023-01-05T04:13:17;11.00;99.90
23100;DHT22;53791;50.696;4.396;2023-01-05T04:15:45;11.00;99.90
23100;DHT22;53791;50.696;4.396;2023-01-05T04:18:13;11.00;99.90
23100;DHT22;53791;50.696;4.396;2023-01-05T04:20:42;11.00;99.90
23100;DHT22;53791;50.696;4.396;2023-01-05T04:23:11;11.00;99.90
23100;DHT22;53791;50.696;4.396;2023-01-05T04:25:38;10.90;99.90
23100;DHT22;53791;50.696;4.396;2023-01-05T04:28:06;11.00;99.90
23100;DHT22;53791;50.696;4.396;2023-01-05T04:30:33;11.00;99.90
23100;DHT22;53791;50.696;4.396;2023-01-05T04:33:06;10.90;99.90
23100;DHT22;53791;50.696;4.396;2023-01-05T04:35:33;10.90;99.90
23100;DHT22;53791;50.696;4.396;2023-01-05T04:38:05;11.00;99.90
23100;DHT22;53791;50.696;4.396;2023-01-05T04:40:37;10.90;99.90
23100;DHT22;53791;50.696;4.396;2023-01-05T04:43:05;11.00;99.90
23100;DHT22;53791;50.696;4.396;2023-01-05T04:45:34;10.90;99.90
23100;DHT22;53791;50.696;4.396;2023-01-05T04:48:03;11.00;99.90
23100;DHT22;53791;50.696;4.396;2023-01-05T04:50:30;11.00;99.90
23100;DHT22;53791;50.696;4.396;2023-01-05T04:52:58;10.90;99.90
23100;DHT22;53791;50.696;4.396;2023-01-05T04:55:26;10.90;99.90
23100;DHT22;53791;50.696;4.396;2023-01-05T04:57:54;10.80;99.90
23100;DHT22;53791;50.696;4.396;2023-01-05T05:00:22;10.80;99.90
23100;DHT22;53791;50.696;4.396;2023-01-05T05:02:51;10.80;99.90
23100;DHT22;53791;50.696;4.396;2023-01-05T05:05:19;10.80;99.90
23100;DHT22;53791;50.696;4.396;2023-01-05T05:07:47;10.80;99.90
23100;DHT22;53791;50.696;4.396;2023-01-05T05:10:15;10.90;99.90
23100;DHT22;53791;50.696;4.396;2023-01-05T05:12:45;10.90;99.90
23100;DHT22;53791;50.696;4.396;2023-01-05T05:15:13;10.90;99.90
23100;DHT22;53791;50.696;4.396;2023-01-05T05:17:40;10.80;99.90
23100;DHT22;53791;50.696;4.396;2023-01-05T05:20:12;10.80;99.90
23100;DHT22;53791;50.696;4.396;2023-01-05T05:22:41;10.80;99.90
23100;DHT22;53791;50.696;4.396;2023-01-05T05:25:14;10.80;99.90
23100;DHT22;53791;50.696;4.396;2023-01-05T05:27:44;10.80;99.90
23100;DHT22;53791;50.696;4.396;2023-01-05T05:30:12;10.80;99.90
23100;DHT22;53791;50.696;4.396;2023-01-05T05:32:41;10.80;99.90
23100;DHT22;53791;50.696;4.396;2023-01-05T05:35:09;10.80;99.90
23100;DHT22;53791;50.696;4.396;2023-01-05T05:37:39;10.70;99.90
23100;DHT22;53791;50.696;4.396;2023-01-05T05:40:09;10.70;99.90
23100;DHT22;53791;50.696;4.396;2023-01-05T05:42:43;10.70;99.90
23100;DHT22;53791;50.696;4.396;2023-01-05T05:45:10;10.80;99.90
23100;DHT22;53791;50.696;4.396;2023-01-05T05:47:38;10.70;99.90
23100;DHT22;53791;50.696;4.396;2023-01-05T05:50:06;10.80;99.90
23100;DHT22;53791;50.696;4.396;2023-01-05T05:52:35;10.70;99.90
23100;DHT22;53791;50.696;4.396;2023-01-05T05:55:03;10.80;99.90
23100;DHT22;53791;50.696;4.396;2023-01-05T05:57:32;10.80;99.90
23100;DHT22;53791;50.696;4.396;2023-01-05T06:00:07;10.70;99.90
23100;DHT22;53791;50.696;4.396;2023-01-05T06:02:34;10.70;99.90
23100;DHT22;53791;50.696;4.396;2023-01-05T06:05:02;10.70;99.90
23100;DHT22;53791;50.696;4.396;2023-01-05T06:07:30;10.70;99.90
23100;DHT22;53791;50.696;4.396;2023-01-05T06:10:01;10.70;99.90
23100;DHT22;53791;50.696;4.396;2023-01-05T06:12:30;10.60;99.90
23100;DHT22;53791;50.696;4.396;2023-01-05T06:14:59;10.60;99.90
23100;DHT22;53791;50.696;4.396;2023-01-05T06:17:27;10.60;99.90
23100;DHT22;53791;50.696;4.396;2023-01-05T06:19:57;10.60;99.90
23100;DHT22;53791;50.696;4.396;2023-01-05T06:22:26;10.60;99.90
23100;DHT22;53791;50.696;4.396;2023-01-05T06:24:54;10.60;99.90
23100;DHT22;53791;50.696;4.396;2023-01-05T06:27:24;10.50;99.90
23100;DHT22;53791;50.696;4.396;2023-01-05T06:29:52;10.60;99.90
23100;DHT22;53791;50.696;4.396;2023-01-05T06:32:20;10.60;99.90
23100;DHT22;53791;50.696;4.396;2023-01-05T06:34:52;10.70;99.90
23100;DHT22;53791;50.696;4.396;2023-01-05T06:37:19;10.60;99.90
23100;DHT22;53791;50.696;4.396;2023-01-05T06:39:47;10.60;99.90
23100;DHT22;53791;50.696;4.396;2023-01-05T06:42:15;10.50;99.90
23100;DHT22;53791;50.696;4.396;2023-01-05T06:44:44;10.60;99.90
23100;DHT22;53791;50.696;4.396;2023-01-05T06:47:11;10.50;99.90
23100;DHT22;53791;50.696;4.396;2023-01-05T06:49:39;10.50;99.90
23100;DHT22;53791;50.696;4.396;2023-01-05T06:52:07;10.50;99.90
23100;DHT22;53791;50.696;4.396;2023-01-05T06:54:34;10.50;99.90
23100;DHT22;53791;50.696;4.396;2023-01-05T06:57:02;10.40;99.90
23100;DHT22;53791;50.696;4.396;2023-01-05T06:59:29;10.40;99.90
23100;DHT22;53791;50.696;4.396;2023-01-05T07:01:57;10.50;99.90
23100;DHT22;53791;50.696;4.396;2023-01-05T07:04:25;10.50;99.90
23100;DHT22;53791;50.696;4.396;2023-01-05T07:06:53;10.50;99.90
23100;DHT22;53791;50.696;4.396;2023-01-05T07:09:20;10.50;99.90
23100;DHT22;53791;50.696;4.396;2023-01-05T07:11:48;10.50;99.90
23100;DHT22;53791;50.696;4.396;2023-01-05T07:14:22;10.50;99.90
23100;DHT22;53791;50.696;4.396;2023-01-05T07:16:49;10.50;99.90
23100;DHT22;53791;50.696;4.396;2023-01-05T07:19:17;10.50;99.90
23100;DHT22;53791;50.696;4.396;2023-01-05T07:21:48;10.50;99.90
23100;DHT22;53791;50.696;4.396;2023-01-05T07:24:18;10.50;99.90
23100;DHT22;53791;50.696;4.396;2023-01-05T07:26:48;10.50;99.90
23100;DHT22;53791;50.696;4.396;2023-01-05T07:29:17;10.50;99.90
23100;DHT22;53791;50.696;4.396;2023-01-05T07:31:44;10.50;99.90
23100;DHT22;53791;50.696;4.396;2023-01-05T07:34:14;10.50;99.90
23100;DHT22;53791;50.696;4.396;2023-01-05T07:36:42;10.50;99.90
23100;DHT22;53791;50.696;4.396;2023-01-05T07:39:15;10.50;99.90
23100;DHT22;53791;50.696;4.396;2023-01-05T07:41:44;10.40;99.90
23100;DHT22;53791;50.696;4.396;2023-01-05T07:44:11;10.40;99.90
23100;DHT22;53791;50.696;4.396;2023-01-05T07:46:39;10.40;99.90
23100;DHT22;53791;50.696;4.396;2023-01-05T07:49:06;10.30;99.90
23100;DHT22;53791;50.696;4.396;2023-01-05T07:51:34;10.30;99.90
23100;DHT22;53791;50.696;4.396;2023-01-05T07:54:02;10.30;99.90
23100;DHT22;53791;50.696;4.396;2023-01-05T07:56:30;10.30;99.90
23100;DHT22;53791;50.696;4.396;2023-01-05T07:58:58;10.30;99.90
23100;DHT22;53791;50.696;4.396;2023-01-05T08:01:28;10.30;99.90
23100;DHT22;53791;50.696;4.396;2023-01-05T08:03:57;10.30;99.90
23100;DHT22;53791;50.696;4.396;2023-01-05T08:06:32;10.30;99.90
23100;DHT22;53791;50.696;4.396;2023-01-05T08:09:02;10.20;99.90
23100;DHT22;53791;50.696;4.396;2023-01-05T08:11:31;10.20;99.90
23100;DHT22;53791;50.696;4.396;2023-01-05T08:13:59;10.20;99.90
23100;DHT22;53791;50.696;4.396;2023-01-05T08:16:31;10.20;99.90
23100;DHT22;53791;50.696;4.396;2023-01-05T08:19:03;10.30;99.90
23100;DHT22;53791;50.696;4.396;2023-01-05T08:21:32;10.30;99.90
23100;DHT22;53791;50.696;4.396;2023-01-05T08:23:59;10.30;99.90
23100;DHT22;53791;50.696;4.396;2023-01-05T08:26:29;10.40;99.90
23100;DHT22;53791;50.696;4.396;2023-01-05T08:29:01;10.40;99.90
23100;DHT22;53791;50.696;4.396;2023-01-05T08:31:30;10.50;99.90
23100;DHT22;53791;50.696;4.396;2023-01-05T08:34:02;10.50;99.90
23100;DHT22;53791;50.696;4.396;2023-01-05T08:36:30;10.50;99.90
23100;DHT22;53791;50.696;4.396;2023-01-05T08:39:00;10.40;99.90
23100;DHT22;53791;50.696;4.396;2023-01-05T08:41:33;10.50;99.90
23100;DHT22;53791;50.696;4.396;2023-01-05T08:44:05;10.50;99.90
23100;DHT22;53791;50.696;4.396;2023-01-05T08:46:35;10.50;99.90
23100;DHT22;53791;50.696;4.396;2023-01-05T08:49:05;10.60;99.90
23100;DHT22;53791;50.696;4.396;2023-01-05T08:51:33;10.70;99.90
23100;DHT22;53791;50.696;4.396;2023-01-05T08:54:06;10.70;99.90
23100;DHT22;53791;50.696;4.396;2023-01-05T08:56:36;10.80;99.90
23100;DHT22;53791;50.696;4.396;2023-01-05T08:59:04;10.80;99.90
23100;DHT22;53791;50.696;4.396;2023-01-05T09:01:32;10.90;99.90
23100;DHT22;53791;50.696;4.396;2023-01-05T09:04:01;10.80;99.90
23100;DHT22;53791;50.696;4.396;2023-01-05T09:06:30;10.80;99.90
23100;DHT22;53791;50.696;4.396;2023-01-05T09:09:00;10.80;99.90
23100;DHT22;53791;50.696;4.396;2023-01-05T09:11:27;10.80;99.90
23100;DHT22;53791;50.696;4.396;2023-01-05T09:13:57;10.80;99.90
23100;DHT22;53791;50.696;4.396;2023-01-05T09:16:27;10.90;99.90
23100;DHT22;53791;50.696;4.396;2023-01-05T09:18:57;11.00;99.90
23100;DHT22;53791;50.696;4.396;2023-01-05T09:21:25;11.10;99.90
23100;DHT22;53791;50.696;4.396;2023-01-05T09:23:53;11.00;99.90
23100;DHT22;53791;50.696;4.396;2023-01-05T09:26:21;11.00;99.90
23100;DHT22;53791;50.696;4.396;2023-01-05T09:28:48;11.00;99.90
23100;DHT22;53791;50.696;4.396;2023-01-05T09:31:18;11.00;99.90
23100;DHT22;53791;50.696;4.396;2023-01-05T09:33:46;11.00;99.90
23100;DHT22;53791;50.696;4.396;2023-01-05T09:36:17;11.10;99.90
23100;DHT22;53791;50.696;4.396;2023-01-05T09:38:55;11.20;99.90
23100;DHT22;53791;50.696;4.396;2023-01-05T09:41:36;11.30;99.90
23100;DHT22;53791;50.696;4.396;2023-01-05T09:44:10;11.30;99.90
23100;DHT22;53791;50.696;4.396;2023-01-05T09:46:42;11.20;99.90
23100;DHT22;53791;50.696;4.396;2023-01-05T09:49:13;11.10;99.90
23100;DHT22;53791;50.696;4.396;2023-01-05T09:51:46;11.10;99.90
23100;DHT22;53791;50.696;4.396;2023-01-05T09:54:19;11.10;99.90
23100;DHT22;53791;50.696;4.396;2023-01-05T09:56:48;11.30;99.90
23100;DHT22;53791;50.696;4.396;2023-01-05T09:59:30;11.50;99.90
23100;DHT22;53791;50.696;4.396;2023-01-05T10:02:22;11.60;99.90
23100;DHT22;53791;50.696;4.396;2023-01-05T10:04:40;11.80;99.90
23100;DHT22;53791;50.696;4.396;2023-01-05T10:07:23;12.00;99.90
23100;DHT22;53791;50.696;4.396;2023-01-05T10:09:53;12.00;99.90
23100;DHT22;53791;50.696;4.396;2023-01-05T10:12:30;11.90;99.90
23100;DHT22;53791;50.696;4.396;2023-01-05T10:15:17;11.90;99.90
23100;DHT22;53791;50.696;4.396;2023-01-05T10:17:46;11.80;99.90
23100;DHT22;53791;50.696;4.396;2023-01-05T10:25:27;11.40;99.90
23100;DHT22;53791;50.696;4.396;2023-01-05T10:30:53;11.40;99.90
23100;DHT22;53791;50.696;4.396;2023-01-05T10:36:25;11.50;99.90
23100;DHT22;53791;50.696;4.396;2023-01-05T10:47:18;11.80;99.90
23100;DHT22;53791;50.696;4.396;2023-01-05T10:49:48;11.80;99.90
23100;DHT22;53791;50.696;4.396;2023-01-05T10:52:20;11.70;99.90
23100;DHT22;53791;50.696;4.396;2023-01-05T10:54:59;11.80;99.90
23100;DHT22;53791;50.696;4.396;2023-01-05T10:57:32;11.70;99.90
23100;DHT22;53791;50.696;4.396;2023-01-05T11:00:14;11.80;99.90
23100;DHT22;53791;50.696;4.396;2023-01-05T11:02:48;11.90;99.90
23100;DHT22;53791;50.696;4.396;2023-01-05T11:05:31;12.00;99.90
23100;DHT22;53791;50.696;4.396;2023-01-05T11:08:04;12.10;99.90
23100;DHT22;53791;50.696;4.396;2023-01-05T11:13:30;12.40;99.90
23100;DHT22;53791;50.696;4.396;2023-01-05T11:16:12;12.30;99.90
23100;DHT22;53791;50.696;4.396;2023-01-05T11:18:52;12.30;99.90
23100;DHT22;53791;50.696;4.396;2023-01-05T11:21:25;12.40;99.90
23100;DHT22;53791;50.696;4.396;2023-01-05T11:23:57;12.50;99.90
23100;DHT22;53791;50.696;4.396;2023-01-05T11:26:35;12.40;99.90
23100;DHT22;53791;50.696;4.396;2023-01-05T11:29:11;12.50;99.90
23100;DHT22;53791;50.696;4.396;2023-01-05T11:31:41;12.50;99.90
23100;DHT22;53791;50.696;4.396;2023-01-05T11:34:16;12.50;99.90
23100;DHT22;53791;50.696;4.396;2023-01-05T11:36:56;12.50;99.90
23100;DHT22;53791;50.696;4.396;2023-01-05T11:39:29;12.50;99.90
23100;DHT22;53791;50.696;4.396;2023-01-05T11:42:09;12.40;99.90
23100;DHT22;53791;50.696;4.396;2023-01-05T11:44:34;12.40;99.90
23100;DHT22;53791;50.696;4.396;2023-01-05T11:47:04;12.50;99.90
23100;DHT22;53791;50.696;4.396;2023-01-05T11:49:36;12.50;99.90
23100;DHT22;53791;50.696;4.396;2023-01-05T11:52:12;12.50;99.90
23100;DHT22;53791;50.696;4.396;2023-01-05T11:54:37;12.50;99.90
23100;DHT22;53791;50.696;4.396;2023-01-05T11:57:17;12.40;99.90
23100;DHT22;53791;50.696;4.396;2023-01-05T11:59:45;12.30;99.90
23100;DHT22;53791;50.696;4.396;2023-01-05T12:02:41;12.20;99.90
23100;DHT22;53791;50.696;4.396;2023-01-05T12:05:26;12.20;99.90
23100;DHT22;53791;50.696;4.396;2023-01-05T12:08:04;12.10;99.90
23100;DHT22;53791;50.696;4.396;2023-01-05T12:13:22;12.20;99.90
23100;DHT22;53791;50.696;4.396;2023-01-05T12:18:52;12.30;99.90
23100;DHT22;53791;50.696;4.396;2023-01-05T12:21:28;12.20;99.90
23100;DHT22;53791;50.696;4.396;2023-01-05T12:24:21;12.30;99.90
23100;DHT22;53791;50.696;4.396;2023-01-05T12:27:09;12.30;99.90
23100;DHT22;53791;50.696;4.396;2023-01-05T12:32:54;12.20;99.90
23100;DHT22;53791;50.696;4.396;2023-01-05T12:35:40;12.20;99.90
23100;DHT22;53791;50.696;4.396;2023-01-05T12:49:38;12.00;99.90
23100;DHT22;53791;50.696;4.396;2023-01-05T12:52:12;12.00;99.90
23100;DHT22;53791;50.696;4.396;2023-01-05T12:54:52;12.00;99.90
23100;DHT22;53791;50.696;4.396;2023-01-05T12:57:35;11.70;99.90
23100;DHT22;53791;50.696;4.396;2023-01-05T13:00:08;11.60;99.90
23100;DHT22;53791;50.696;4.396;2023-01-05T13:02:40;11.60;99.90
23100;DHT22;53791;50.696;4.396;2023-01-05T13:05:31;11.50;99.90
23100;DHT22;53791;50.696;4.396;2023-01-05T13:08:28;11.60;99.90
23100;DHT22;53791;50.696;4.396;2023-01-05T13:11:03;11.60;99.90
23100;DHT22;53791;50.696;4.396;2023-01-05T13:13:39;11.70;99.90
23100;DHT22;53791;50.696;4.396;2023-01-05T13:16:11;11.70;99.90
23100;DHT22;53791;50.696;4.396;2023-01-05T13:18:39;11.80;99.90
23100;DHT22;53791;50.696;4.396;2023-01-05T13:21:07;11.90;99.90
23100;DHT22;53791;50.696;4.396;2023-01-05T13:23:40;11.80;99.90
23100;DHT22;53791;50.696;4.396;2023-01-05T13:26:16;11.90;99.90
23100;DHT22;53791;50.696;4.396;2023-01-05T13:28:50;11.80;99.90
23100;DHT22;53791;50.696;4.396;2023-01-05T13:34:26;11.60;99.90
23100;DHT22;53791;50.696;4.396;2023-01-05T13:39:59;11.60;99.90
23100;DHT22;53791;50.696;4.396;2023-01-05T13:42:48;11.60;99.90
23100;DHT22;53791;50.696;4.396;2023-01-05T13:45:31;11.50;99.90
23100;DHT22;53791;50.696;4.396;2023-01-05T13:50:55;11.60;99.90
23100;DHT22;53791;50.696;4.396;2023-01-05T13:53:21;11.50;99.90
23100;DHT22;53791;50.696;4.396;2023-01-05T13:56:00;11.50;99.90
23100;DHT22;53791;50.696;4.396;2023-01-05T13:58:42;11.50;99.90
23100;DHT22;53791;50.696;4.396;2023-01-05T14:01:16;11.50;99.90
23100;DHT22;53791;50.696;4.396;2023-01-05T14:03:51;11.60;99.90
23100;DHT22;53791;50.696;4.396;2023-01-05T14:06:24;11.70;99.90
23100;DHT22;53791;50.696;4.396;2023-01-05T14:09:03;11.70;99.90
23100;DHT22;53791;50.696;4.396;2023-01-05T14:11:32;11.60;99.90
23100;DHT22;53791;50.696;4.396;2023-01-05T14:14:24;11.60;99.90
23100;DHT22;53791;50.696;4.396;2023-01-05T14:19:24;11.60;99.90
23100;DHT22;53791;50.696;4.396;2023-01-05T14:22:01;11.60;99.90
23100;DHT22;53791;50.696;4.396;2023-01-05T14:24:35;11.70;99.90
23100;DHT22;53791;50.696;4.396;2023-01-05T14:27:12;11.80;99.90
23100;DHT22;53791;50.696;4.396;2023-01-05T14:32:35;11.80;99.90
23100;DHT22;53791;50.696;4.396;2023-01-05T14:38:04;11.80;99.90
23100;DHT22;53791;50.696;4.396;2023-01-05T14:40:37;11.70;99.90
23100;DHT22;53791;50.696;4.396;2023-01-05T14:46:09;11.80;99.90
23100;DHT22;53791;50.696;4.396;2023-01-05T14:49:05;11.80;99.90
23100;DHT22;53791;50.696;4.396;2023-01-05T14:51:29;11.90;99.90
23100;DHT22;53791;50.696;4.396;2023-01-05T14:54:02;12.00;99.90
23100;DHT22;53791;50.696;4.396;2023-01-05T14:56:32;12.00;99.90
23100;DHT22;53791;50.696;4.396;2023-01-05T14:59:19;12.00;99.90
23100;DHT22;53791;50.696;4.396;2023-01-05T15:01:57;12.00;99.90
23100;DHT22;53791;50.696;4.396;2023-01-05T15:04:32;12.00;99.90
23100;DHT22;53791;50.696;4.396;2023-01-05T15:10:01;11.90;99.90
23100;DHT22;53791;50.696;4.396;2023-01-05T15:12:48;11.90;99.90
23100;DHT22;53791;50.696;4.396;2023-01-05T15:15:37;11.90;99.90
23100;DHT22;53791;50.696;4.396;2023-01-05T15:29:48;11.90;99.90
23100;DHT22;53791;50.696;4.396;2023-01-05T15:32:20;11.90;99.90
23100;DHT22;53791;50.696;4.396;2023-01-05T15:35:15;11.90;99.90
23100;DHT22;53791;50.696;4.396;2023-01-05T15:37:49;11.90;99.90
23100;DHT22;53791;50.696;4.396;2023-01-05T15:40:30;11.90;99.90
23100;DHT22;53791;50.696;4.396;2023-01-05T15:43:00;11.90;99.90
23100;DHT22;53791;50.696;4.396;2023-01-05T15:45:34;11.80;99.90
23100;DHT22;53791;50.696;4.396;2023-01-05T15:48:14;11.80;99.90
23100;DHT22;53791;50.696;4.396;2023-01-05T15:50:52;11.80;99.90
23100;DHT22;53791;50.696;4.396;2023-01-05T15:53:30;11.80;99.90
23100;DHT22;53791;50.696;4.396;2023-01-05T15:58:44;11.80;99.90
23100;DHT22;53791;50.696;4.396;2023-01-05T16:01:30;11.80;99.90
23100;DHT22;53791;50.696;4.396;2023-01-05T16:04:12;11.80;99.90
23100;DHT22;53791;50.696;4.396;2023-01-05T16:06:44;11.90;99.90
23100;DHT22;53791;50.696;4.396;2023-01-05T16:09:25;12.00;99.90
23100;DHT22;53791;50.696;4.396;2023-01-05T16:12:02;11.90;99.90
23100;DHT22;53791;50.696;4.396;2023-01-05T16:17:22;12.00;99.90
23100;DHT22;53791;50.696;4.396;2023-01-05T16:19:55;12.00;99.90
23100;DHT22;53791;50.696;4.396;2023-01-05T16:22:32;11.90;99.90
23100;DHT22;53791;50.696;4.396;2023-01-05T16:25:11;11.90;99.90
23100;DHT22;53791;50.696;4.396;2023-01-05T16:27:58;11.90;99.90
23100;DHT22;53791;50.696;4.396;2023-01-05T16:30:25;12.00;99.90
23100;DHT22;53791;50.696;4.396;2023-01-05T16:32:53;12.00;99.90
23100;DHT22;53791;50.696;4.396;2023-01-05T16:35:37;11.90;99.90
23100;DHT22;53791;50.696;4.396;2023-01-05T16:40:54;11.90;99.90
23100;DHT22;53791;50.696;4.396;2023-01-05T16:45:48;11.90;99.90
23100;DHT22;53791;50.696;4.396;2023-01-05T16:51:18;11.90;99.90
23100;DHT22;53791;50.696;4.396;2023-01-05T16:53:55;11.90;99.90
23100;DHT22;53791;50.696;4.396;2023-01-05T16:56:42;11.90;99.90
23100;DHT22;53791;50.696;4.396;2023-01-05T16:58:52;11.90;99.90
23100;DHT22;53791;50.696;4.396;2023-01-05T17:01:34;11.80;99.90
23100;DHT22;53791;50.696;4.396;2023-01-05T17:04:14;11.80;99.90
23100;DHT22;53791;50.696;4.396;2023-01-05T17:06:52;11.80;99.90
23100;DHT22;53791;50.696;4.396;2023-01-05T17:09:31;11.70;99.90
23100;DHT22;53791;50.696;4.396;2023-01-05T17:12:06;11.70;99.90
23100;DHT22;53791;50.696;4.396;2023-01-05T17:14:34;11.70;99.90
23100;DHT22;53791;50.696;4.396;2023-01-05T17:17:10;11.70;99.90
23100;DHT22;53791;50.696;4.396;2023-01-05T17:19:41;11.70;99.90
23100;DHT22;53791;50.696;4.396;2023-01-05T17:22:21;11.80;99.90
23100;DHT22;53791;50.696;4.396;2023-01-05T17:24:59;11.80;99.90
23100;DHT22;53791;50.696;4.396;2023-01-05T17:27:28;11.80;99.90
23100;DHT22;53791;50.696;4.396;2023-01-05T17:30:04;11.80;99.90
23100;DHT22;53791;50.696;4.396;2023-01-05T17:32:46;11.90;99.90
23100;DHT22;53791;50.696;4.396;2023-01-05T17:35:38;11.80;99.90
23100;DHT22;53791;50.696;4.396;2023-01-05T17:38:04;11.70;99.90
23100;DHT22;53791;50.696;4.396;2023-01-05T17:40:31;11.70;99.90
23100;DHT22;53791;50.696;4.396;2023-01-05T17:42:59;11.60;99.90
23100;DHT22;53791;50.696;4.396;2023-01-05T17:45:26;11.70;99.90
23100;DHT22;53791;50.696;4.396;2023-01-05T17:47:59;11.70;99.90
23100;DHT22;53791;50.696;4.396;2023-01-05T17:50:25;11.70;99.90
23100;DHT22;53791;50.696;4.396;2023-01-05T17:52:54;11.60;99.90
23100;DHT22;53791;50.696;4.396;2023-01-05T17:55:22;11.60;99.90